Time;durP1;ratioP1;P1;durP2;ratioP2;P2;SDS_P1;SDS_P2;PMS_P1;PMS_P2;Temp;Humidity;BMP_temperature;BMP_pressure;BME280_temperature;BME280_humidity;BME280_pressure;Samples;Min_cycle;Max_cycle;Signal;HPM_P1;HPM_P2
2023/06/19 00:00:16;;;;;;;;;;;;;;;21.32;42.14;97596.44;5101366;27;19931;-61
2023/06/19 00:02:46;;;;;;;;;;;;;;;21.33;42.21;97598.03;5099889;28;19934;-61
2023/06/19 00:05:14;;;;;;;;;;;;;;;21.26;42.04;97603.50;5112073;28;19923;-61
2023/06/19 00:07:42;;;;;;;;;;;;;;;21.21;42.31;97598.34;5108029;28;19923;-61
2023/06/19 00:10:09;;;;;;;;;;;;;;;21.18;42.28;97597.94;5108985;27;19928;-61
2023/06/19 00:12:37;;;;;;;;;;;;;;;21.16;42.60;97600.31;5107519;27;19923;-61
2023/06/19 00:15:09;;;;;;;;;;;;;;;21.14;42.46;97594.34;5107593;28;19967;-61
2023/06/19 00:17:38;;;;;;;;;;;;;;;21.07;42.76;97596.31;5106428;28;19928;-61
2023/06/19 00:20:06;;;;;;;;;;;;;;;21.04;42.49;97597.88;5110994;28;19924;-61
2023/06/19 00:22:34;;;;;;;;;;;;;;;21.00;42.70;97591.56;5099001;28;19924;-61
2023/06/19 00:25:02;;;;;;;;;;;;;;;20.97;42.65;97597.06;5104980;28;19924;-61
2023/06/19 00:27:30;;;;;;;;;;;;;;;20.96;42.74;97585.22;5098108;28;19934;-61
2023/06/19 00:30:06;;;;;;;;;;;;;;;21.00;42.86;97591.56;5095899;28;20015;-61
2023/06/19 00:32:46;;;;;;;;;;;;;;;20.98;42.94;97595.88;5142342;27;20573;-61
2023/06/19 00:35:16;;;;;;;;;;;;;;;20.97;43.05;97591.53;5099798;28;19924;-61
2023/06/19 00:37:45;;;;;;;;;;;;;;;20.98;43.04;97585.59;5108652;27;19955;-61
2023/06/19 00:40:18;;;;;;;;;;;;;;;20.93;43.02;97586.78;5137738;27;19924;-61
2023/06/19 00:42:46;;;;;;;;;;;;;;;20.95;43.17;97585.63;5102638;28;20022;-61
2023/06/19 00:45:14;;;;;;;;;;;;;;;20.94;43.02;97582.06;5099112;28;19924;-61
2023/06/19 00:47:42;;;;;;;;;;;;;;;20.93;43.18;97592.31;5101650;28;19993;-61
2023/06/19 00:50:10;;;;;;;;;;;;;;;20.89;43.07;97591.50;5107751;28;19955;-61
2023/06/19 00:52:39;;;;;;;;;;;;;;;20.88;43.00;97592.69;5105578;28;19927;-62
2023/06/19 00:55:07;;;;;;;;;;;;;;;20.91;43.09;97600.19;5102004;28;20265;-61
2023/06/19 00:57:39;;;;;;;;;;;;;;;20.88;43.00;97598.22;5105999;28;19939;-61
2023/06/19 01:00:09;;;;;;;;;;;;;;;20.92;43.02;97598.22;5099329;28;19928;-61
2023/06/19 01:02:37;;;;;;;;;;;;;;;20.91;42.96;97600.19;5105990;28;19931;-61
2023/06/19 01:05:05;;;;;;;;;;;;;;;20.95;42.89;97596.66;5097793;28;19936;-61
2023/06/19 01:07:34;;;;;;;;;;;;;;;20.94;43.17;97598.63;5100700;28;19924;-61
2023/06/19 01:10:04;;;;;;;;;;;;;;;20.93;43.05;97594.25;5108408;28;19924;-61
2023/06/19 01:12:34;;;;;;;;;;;;;;;20.92;43.18;97596.22;5097712;28;19947;-61
2023/06/19 01:15:03;;;;;;;;;;;;;;;20.93;42.82;97594.25;5101983;28;19984;-61
2023/06/19 01:17:31;;;;;;;;;;;;;;;20.91;42.75;97580.06;5105964;28;20018;-62
2023/06/19 01:19:59;;;;;;;;;;;;;;;20.95;42.89;97588.38;5100602;28;19962;-61
2023/06/19 01:22:29;;;;;;;;;;;;;;;20.92;42.61;97587.94;5094072;28;19977;-61
2023/06/19 01:25:00;;;;;;;;;;;;;;;20.87;42.49;97587.53;5104765;28;20030;-61
2023/06/19 01:27:29;;;;;;;;;;;;;;;20.85;42.71;97593.44;5106498;28;20011;-61
2023/06/19 01:29:57;;;;;;;;;;;;;;;20.88;42.70;97592.69;5095644;28;20584;-61
2023/06/19 01:32:26;;;;;;;;;;;;;;;20.89;42.93;97585.19;5105554;28;19923;-61
2023/06/19 01:34:56;;;;;;;;;;;;;;;20.82;42.85;97588.69;5108564;28;19988;-61
2023/06/19 01:37:27;;;;;;;;;;;;;;;20.80;42.82;97581.97;5101500;28;20007;-61
2023/06/19 01:39:57;;;;;;;;;;;;;;;20.77;42.78;97583.53;5102866;28;19924;-61
2023/06/19 01:42:25;;;;;;;;;;;;;;;20.70;42.78;97580.75;5103579;28;19974;-61
2023/06/19 01:44:52;;;;;;;;;;;;;;;20.68;42.93;97580.34;5108211;28;19924;-61
2023/06/19 01:47:21;;;;;;;;;;;;;;;20.64;43.34;97583.06;5138286;27;19962;-61
2023/06/19 01:49:49;;;;;;;;;;;;;;;20.67;43.15;97584.28;5100987;28;20360;-61
2023/06/19 01:52:16;;;;;;;;;;;;;;;20.67;43.19;97584.28;5109124;28;19962;-61
2023/06/19 01:54:44;;;;;;;;;;;;;;;20.64;43.35;97583.06;5105258;28;19955;-61
2023/06/19 01:57:13;;;;;;;;;;;;;;;20.61;43.46;97580.28;5105301;28;20378;-61
2023/06/19 01:59:42;;;;;;;;;;;;;;;20.58;43.58;97581.06;5106080;28;20034;-61
2023/06/19 02:02:11;;;;;;;;;;;;;;;20.58;43.51;97592.13;5098308;28;20269;-61
2023/06/19 02:04:39;;;;;;;;;;;;;;;20.52;43.83;97588.13;5144848;27;20023;-61
2023/06/19 02:07:07;;;;;;;;;;;;;;;20.55;43.31;97592.88;5105428;28;20023;-61
2023/06/19 02:09:38;;;;;;;;;;;;;;;20.47;43.70;97589.28;5105812;28;20010;-61
2023/06/19 02:12:07;;;;;;;;;;;;;;;20.41;43.55;97594.34;5095411;28;19932;-61
2023/06/19 02:14:36;;;;;;;;;;;;;;;20.43;43.81;97596.72;5101881;28;19923;-61
2023/06/19 02:17:06;;;;;;;;;;;;;;;20.41;43.60;97593.56;5096592;28;19931;-61
2023/06/19 02:19:35;;;;;;;;;;;;;;;20.38;43.89;97595.09;5144928;27;20443;-61
2023/06/19 02:22:03;;;;;;;;;;;;;;;20.43;43.92;97599.47;5135463;27;19924;-61
2023/06/19 02:24:31;;;;;;;;;;;;;;;20.39;43.92;97601.41;5107156;28;19951;-61
2023/06/19 02:26:58;;;;;;;;;;;;;;;20.41;43.89;97601.84;5144981;27;20292;-61
2023/06/19 02:29:26;;;;;;;;;;;;;;;20.35;43.95;97601.41;5101286;28;19974;-61
2023/06/19 02:31:55;;;;;;;;;;;;;;;20.38;44.21;97595.09;5095098;28;19992;-61
2023/06/19 02:34:24;;;;;;;;;;;;;;;20.37;44.18;97592.72;5105784;28;19923;-61
2023/06/19 02:36:51;;;;;;;;;;;;;;;20.38;44.31;97592.34;5139572;27;19923;-61
2023/06/19 02:39:22;;;;;;;;;;;;;;;20.36;44.47;97602.97;5108189;28;20009;-61
2023/06/19 02:41:51;;;;;;;;;;;;;;;20.38;44.58;97595.09;5105208;28;19976;-61
2023/06/19 02:44:19;;;;;;;;;;;;;;;20.35;44.26;97595.09;5104365;28;19951;-61
2023/06/19 02:46:48;;;;;;;;;;;;;;;20.35;44.34;97584.84;5109690;28;20403;-61
2023/06/19 02:49:17;;;;;;;;;;;;;;;20.31;44.21;97586.78;5108992;28;19927;-61
2023/06/19 02:51:45;;;;;;;;;;;;;;;20.30;44.36;97582.44;5106062;28;19927;-61
2023/06/19 02:54:13;;;;;;;;;;;;;;;20.27;44.42;97579.66;5105671;28;19931;-61
2023/06/19 02:56:40;;;;;;;;;;;;;;;20.28;44.25;97587.53;5098161;28;19990;-61
2023/06/19 02:59:08;;;;;;;;;;;;;;;20.32;43.95;97591.13;5105777;28;20378;-61
2023/06/19 03:01:36;;;;;;;;;;;;;;;20.30;44.01;97599.00;5106783;28;20049;-61
2023/06/19 03:04:04;;;;;;;;;;;;;;;20.28;44.18;97606.06;5102438;28;19924;-61
2023/06/19 03:06:39;;;;;;;;;;;;;;;20.30;44.16;97599.00;5104899;28;19924;-61
2023/06/19 03:09:11;;;;;;;;;;;;;;;20.27;44.35;97597.00;5104241;28;20546;-61
2023/06/19 03:11:40;;;;;;;;;;;;;;;20.26;44.17;97605.66;5140697;27;19927;-61
2023/06/19 03:14:09;;;;;;;;;;;;;;;20.24;44.25;97611.56;5108174;28;19924;-61
2023/06/19 03:16:37;;;;;;;;;;;;;;;20.23;44.06;97607.19;5106803;28;19932;-61
2023/06/19 03:19:05;;;;;;;;;;;;;;;20.22;44.15;97613.09;5135027;27;20403;-61
2023/06/19 03:21:36;;;;;;;;;;;;;;;20.20;44.07;97623.75;5106182;28;19970;-61
2023/06/19 03:24:05;;;;;;;;;;;;;;;20.21;44.12;97625.31;5120516;27;19924;-61
2023/06/19 03:26:34;;;;;;;;;;;;;;;20.19;43.95;97633.97;5097228;28;20384;-61
2023/06/19 03:29:03;;;;;;;;;;;;;;;20.22;43.70;97641.47;5096624;28;19931;-61
2023/06/19 03:31:45;;;;;;;;;;;;;;;20.25;43.67;97640.72;5098059;28;19928;-61
2023/06/19 03:34:14;;;;;;;;;;;;;;;20.25;43.64;97640.72;5101455;28;19977;-61
2023/06/19 03:36:45;;;;;;;;;;;;;;;20.30;43.60;97651.41;5108839;28;20317;-61
2023/06/19 03:39:13;;;;;;;;;;;;;;;20.31;43.46;97654.97;5101814;28;19958;-61
2023/06/19 03:41:42;;;;;;;;;;;;;;;20.32;43.51;97657.34;5100792;28;19923;-61
2023/06/19 03:44:10;;;;;;;;;;;;;;;20.34;43.48;97659.69;5096655;28;19924;-61
2023/06/19 03:46:38;;;;;;;;;;;;;;;20.32;43.31;97662.84;5144066;27;19924;-61
2023/06/19 03:49:06;;;;;;;;;;;;;;;20.28;43.16;97656.50;5109202;28;20339;-61
2023/06/19 03:51:34;;;;;;;;;;;;;;;20.31;43.51;97668.75;5103563;28;19928;-61
2023/06/19 03:54:03;;;;;;;;;;;;;;;20.34;43.40;97671.53;5108505;28;19954;-61
2023/06/19 03:56:31;;;;;;;;;;;;;;;20.37;43.28;97675.50;5125797;27;19932;-61
2023/06/19 03:58:59;;;;;;;;;;;;;;;20.36;43.50;97685.75;5101528;28;20487;-62
2023/06/19 04:01:26;;;;;;;;;;;;;;;20.39;43.35;97684.97;5126275;27;20033;-61
2023/06/19 04:03:54;;;;;;;;;;;;;;;20.31;43.94;97688.84;5109479;28;19931;-62
2023/06/19 04:06:22;;;;;;;;;;;;;;;20.37;43.68;97692.06;5135841;27;19964;-62
2023/06/19 04:08:51;;;;;;;;;;;;;;;20.40;43.80;97689.34;5093669;28;19997;-62
2023/06/19 04:11:20;;;;;;;;;;;;;;;20.40;43.56;97688.53;5136976;27;19970;-62
2023/06/19 04:13:48;;;;;;;;;;;;;;;20.45;43.65;97687.38;5100740;28;20433;-60
2023/06/19 04:16:16;;;;;;;;;;;;;;;20.48;43.62;97689.41;5142430;27;19939;-60
2023/06/19 04:18:44;;;;;;;;;;;;;;;20.50;43.91;97690.59;5096922;28;19932;-59
2023/06/19 04:21:12;;;;;;;;;;;;;;;20.48;43.75;97687.44;5105918;28;19936;-59
2023/06/19 04:23:40;;;;;;;;;;;;;;;20.40;43.82;97674.75;5104314;28;19962;-60
2023/06/19 04:26:07;;;;;;;;;;;;;;;20.47;43.85;97685.06;5103795;28;20499;-60
2023/06/19 04:28:36;;;;;;;;;;;;;;;20.51;44.16;97681.19;5091690;28;19928;-62
2023/06/19 04:31:04;;;;;;;;;;;;;;;20.54;44.23;97679.59;5095764;28;19925;-61
2023/06/19 04:33:32;;;;;;;;;;;;;;;20.56;44.51;97680.00;5117910;27;19927;-62
2023/06/19 04:36:02;;;;;;;;;;;;;;;20.56;44.42;97685.53;5106946;28;19928;-62
2023/06/19 04:38:32;;;;;;;;;;;;;;;20.59;44.79;97682.81;5102558;28;19928;-62
2023/06/19 04:41:00;;;;;;;;;;;;;;;20.57;44.73;97693.44;5107117;28;20352;-62
2023/06/19 04:43:27;;;;;;;;;;;;;;;20.59;44.82;97693.84;5100850;28;19924;-62
2023/06/19 04:45:57;;;;;;;;;;;;;;;20.66;44.99;97698.63;5101270;28;20838;-64
2023/06/19 04:48:25;;;;;;;;;;;;;;;20.68;45.60;97701.81;5097693;28;20011;-59
2023/06/19 04:50:55;;;;;;;;;;;;;;;20.72;44.92;97705.38;5099812;28;19935;-59
2023/06/19 04:53:23;;;;;;;;;;;;;;;20.76;45.18;97703.44;5105488;28;19935;-59
2023/06/19 04:55:54;;;;;;;;;;;;;;;20.81;45.29;97710.56;5109678;28;20581;-60
2023/06/19 04:58:22;;;;;;;;;;;;;;;20.85;45.25;97711.38;5112806;28;20006;-59
2023/06/19 05:00:51;;;;;;;;;;;;;;;20.88;45.56;97708.66;5104161;28;19967;-59
2023/06/19 05:03:21;;;;;;;;;;;;;;;20.90;45.54;97709.06;5102932;28;19930;-59
2023/06/19 05:05:49;;;;;;;;;;;;;;;20.96;45.63;97711.47;5107042;28;19924;-59
2023/06/19 05:08:17;;;;;;;;;;;;;;;20.98;45.54;97709.09;5102097;28;20379;-60
2023/06/19 05:10:45;;;;;;;;;;;;;;;21.02;45.57;97704.38;5102447;28;20453;-59
2023/06/19 05:13:13;;;;;;;;;;;;;;;21.04;45.53;97704.78;5096341;28;19978;-59
2023/06/19 05:15:40;;;;;;;;;;;;;;;21.10;45.43;97711.56;5094397;28;20422;-59
2023/06/19 05:18:08;;;;;;;;;;;;;;;21.10;45.60;97706.03;5109766;28;19931;-59
2023/06/19 05:20:37;;;;;;;;;;;;;;;21.13;45.48;97705.25;5100449;28;20392;-59
2023/06/19 05:23:05;;;;;;;;;;;;;;;21.15;45.92;97713.97;5095752;28;19927;-58
2023/06/19 05:25:33;;;;;;;;;;;;;;;21.15;46.05;97716.72;5105584;28;19931;-59
2023/06/19 05:28:01;;;;;;;;;;;;;;;21.14;46.05;97715.91;5132585;27;20014;-60
2023/06/19 05:30:31;;;;;;;;;;;;;;;21.21;46.29;97722.66;5097142;27;20276;-60
2023/06/19 05:32:59;;;;;;;;;;;;;;;21.25;46.63;97726.22;5104908;27;20051;-60
2023/06/19 05:35:27;;;;;;;;;;;;;;;21.30;46.24;97725.88;5101226;28;19930;-61
2023/06/19 05:37:56;;;;;;;;;;;;;;;21.37;46.25;97721.19;5138811;27;20046;-60
2023/06/19 05:40:24;;;;;;;;;;;;;;;21.44;46.08;97726.75;5105273;28;20040;-60
2023/06/19 05:42:52;;;;;;;;;;;;;;;21.52;45.97;97729.53;5110695;28;20307;-61
2023/06/19 05:45:19;;;;;;;;;;;;;;;21.58;45.99;97736.31;5109722;28;19928;-61
2023/06/19 05:47:47;;;;;;;;;;;;;;;21.64;45.51;97735.53;5110705;28;19928;-61
2023/06/19 05:50:15;;;;;;;;;;;;;;;21.65;45.16;97741.88;5110070;28;20752;-61
2023/06/19 05:52:43;;;;;;;;;;;;;;;21.70;45.41;97741.50;5110131;28;19927;-60
2023/06/19 05:55:13;;;;;;;;;;;;;;;21.76;45.73;97745.47;5111614;28;19930;-60
2023/06/19 05:57:41;;;;;;;;;;;;;;;21.86;45.48;97746.69;5101050;28;20400;-60
2023/06/19 06:00:12;;;;;;;;;;;;;;;21.90;45.45;97756.59;5112187;28;19930;-60
2023/06/19 06:02:40;;;;;;;;;;;;;;;21.99;45.48;97761.72;5103658;28;19978;-61
2023/06/19 06:05:09;;;;;;;;;;;;;;;22.10;45.17;97761.75;5096995;28;20395;-61
2023/06/19 06:07:37;;;;;;;;;;;;;;;22.11;45.02;97780.78;5107427;28;19924;-60
2023/06/19 06:10:07;;;;;;;;;;;;;;;22.25;45.35;97776.47;5132176;27;20291;-61
2023/06/19 06:12:37;;;;;;;;;;;;;;;22.23;45.40;97780.41;5108955;28;19923;-61
2023/06/19 06:15:05;;;;;;;;;;;;;;;22.22;45.49;97776.06;5101821;28;19966;-61
2023/06/19 06:17:33;;;;;;;;;;;;;;;22.18;45.66;97777.25;5108089;28;19928;-60
2023/06/19 06:20:01;;;;;;;;;;;;;;;22.14;45.95;97780.00;5109753;28;19924;-61
2023/06/19 06:22:29;;;;;;;;;;;;;;;22.15;45.86;97776.03;5108659;28;19981;-61
2023/06/19 06:24:56;;;;;;;;;;;;;;;22.14;46.17;97782.75;5097763;28;19924;-62
2023/06/19 06:27:24;;;;;;;;;;;;;;;22.15;46.23;97780.78;5110685;28;20365;-61
2023/06/19 06:29:53;;;;;;;;;;;;;;;22.15;46.36;97780.78;5101567;28;19928;-61
2023/06/19 06:32:21;;;;;;;;;;;;;;;22.13;46.74;97794.22;5107683;28;19973;-61
2023/06/19 06:34:48;;;;;;;;;;;;;;;22.14;47.02;97784.72;5111509;28;19967;-61
2023/06/19 06:37:22;;;;;;;;;;;;;;;22.14;47.21;97796.59;5107885;28;19924;-61
2023/06/19 06:39:50;;;;;;;;;;;;;;;22.14;47.47;97798.56;5103021;28;19923;-61
2023/06/19 06:42:18;;;;;;;;;;;;;;;22.13;47.46;97805.28;5109642;28;19954;-61
2023/06/19 06:44:46;;;;;;;;;;;;;;;22.10;47.55;97801.31;5112064;28;19924;-61
2023/06/19 06:47:15;;;;;;;;;;;;;;;22.11;47.62;97800.16;5111399;28;19927;-61
2023/06/19 06:49:43;;;;;;;;;;;;;;;22.12;47.67;97806.47;5099084;28;19932;-62
2023/06/19 06:52:11;;;;;;;;;;;;;;;22.13;47.71;97808.06;5110193;28;19997;-61
2023/06/19 06:54:38;;;;;;;;;;;;;;;22.15;47.63;97813.97;5102231;28;19924;-61
2023/06/19 06:57:06;;;;;;;;;;;;;;;22.15;47.91;97813.97;5108780;28;20378;-61
2023/06/19 06:59:34;;;;;;;;;;;;;;;22.17;48.05;97817.97;5111689;28;19981;-61
2023/06/19 07:02:02;;;;;;;;;;;;;;;22.22;48.22;97816.78;5104983;28;20012;-61
2023/06/19 07:04:31;;;;;;;;;;;;;;;22.25;48.27;97818.75;5104719;28;20300;-61
2023/06/19 07:07:03;;;;;;;;;;;;;;;22.28;48.35;97812.47;5109002;28;20324;-61
2023/06/19 07:09:31;;;;;;;;;;;;;;;22.32;48.47;97813.25;5101357;28;19924;-61
2023/06/19 07:11:59;;;;;;;;;;;;;;;22.36;48.18;97814.03;5092776;28;19924;-63
2023/06/19 07:14:27;;;;;;;;;;;;;;;22.42;48.29;97811.69;5094904;28;20372;-63
2023/06/19 07:16:55;;;;;;;;;;;;;;;22.44;48.32;97818.44;5102139;28;19923;-63
2023/06/19 07:19:23;;;;;;;;;;;;;;;22.45;48.29;97822.78;5106040;28;20027;-63
2023/06/19 07:21:52;;;;;;;;;;;;;;;22.48;48.21;97824.78;5105599;28;19924;-63
2023/06/19 07:24:20;;;;;;;;;;;;;;;22.53;48.54;97829.13;5105071;28;19945;-63
2023/06/19 07:26:48;;;;;;;;;;;;;;;22.54;48.25;97827.16;5109050;28;19931;-62
2023/06/19 07:29:16;;;;;;;;;;;;;;;22.54;48.28;97829.94;5108363;28;19928;-62
2023/06/19 07:31:43;;;;;;;;;;;;;;;22.58;48.64;97831.50;5109708;28;19923;-62
2023/06/19 07:34:12;;;;;;;;;;;;;;;22.60;48.39;97831.91;5106015;28;19925;-63
2023/06/19 07:36:42;;;;;;;;;;;;;;;22.63;48.21;97827.53;5109458;28;19955;-63
2023/06/19 07:39:11;;;;;;;;;;;;;;;22.64;48.54;97835.47;5108554;28;20183;-63
2023/06/19 07:41:39;;;;;;;;;;;;;;;22.66;48.49;97835.88;5100068;28;19923;-62
2023/06/19 07:44:07;;;;;;;;;;;;;;;22.67;48.57;97833.88;5094141;28;19924;-63
2023/06/19 07:46:35;;;;;;;;;;;;;;;22.65;48.50;97830.72;5101984;28;19932;-62
2023/06/19 07:49:03;;;;;;;;;;;;;;;22.66;48.76;97840.63;5109296;28;19974;-62
2023/06/19 07:51:30;;;;;;;;;;;;;;;22.65;48.60;97836.28;5131678;27;20564;-63
2023/06/19 07:53:58;;;;;;;;;;;;;;;22.70;48.46;97838.66;5111640;28;20023;-62
2023/06/19 07:56:27;;;;;;;;;;;;;;;22.74;48.80;97840.25;5148241;27;20373;-63
2023/06/19 07:58:55;;;;;;;;;;;;;;;22.77;49.08;97840.63;5110942;28;19931;-62
2023/06/19 08:01:23;;;;;;;;;;;;;;;22.75;49.21;97841.81;5106807;28;20023;-62
2023/06/19 08:03:50;;;;;;;;;;;;;;;22.77;48.73;97844.19;5111833;28;19923;-63
2023/06/19 08:06:19;;;;;;;;;;;;;;;22.78;48.90;97845.78;5114450;28;20651;-62
2023/06/19 08:08:46;;;;;;;;;;;;;;;22.79;49.04;97849.31;5108616;28;19973;-63
2023/06/19 08:11:14;;;;;;;;;;;;;;;22.78;49.20;97850.53;5095330;28;19924;-63
2023/06/19 08:13:43;;;;;;;;;;;;;;;22.83;49.24;97861.22;5108206;28;19924;-63
2023/06/19 08:16:11;;;;;;;;;;;;;;;22.86;49.24;97857.66;5099021;28;19931;-62
2023/06/19 08:18:39;;;;;;;;;;;;;;;22.86;49.23;97864.00;5102042;28;19923;-63
2023/06/19 08:21:06;;;;;;;;;;;;;;;22.88;49.36;97869.94;5099755;28;20395;-62
2023/06/19 08:23:34;;;;;;;;;;;;;;;22.89;48.41;97857.69;5104303;28;19924;-63
2023/06/19 08:26:02;;;;;;;;;;;;;;;22.93;49.47;97864.03;5106974;28;19970;-63
2023/06/19 08:28:30;;;;;;;;;;;;;;;22.99;48.99;97862.44;5113810;28;19931;-62
2023/06/19 08:31:00;;;;;;;;;;;;;;;23.05;48.87;97867.59;5103707;28;19978;-63
2023/06/19 08:33:27;;;;;;;;;;;;;;;23.15;49.17;97861.25;5107757;28;20023;-63
2023/06/19 08:35:55;;;;;;;;;;;;;;;23.21;48.94;97862.44;5109443;28;19932;-63
2023/06/19 08:38:23;;;;;;;;;;;;;;;23.28;48.98;97862.47;5101566;28;19939;-63
2023/06/19 08:40:51;;;;;;;;;;;;;;;23.31;48.91;97871.97;5107091;27;19950;-62
2023/06/19 08:43:19;;;;;;;;;;;;;;;23.38;48.80;97861.63;5109909;28;19984;-63
2023/06/19 08:45:53;;;;;;;;;;;;;;;23.42;48.34;97862.44;5111526;28;19928;-63
2023/06/19 08:48:23;;;;;;;;;;;;;;;23.55;48.39;97864.81;5107614;28;19924;-62
2023/06/19 08:50:51;;;;;;;;;;;;;;;23.62;47.79;97864.78;5099856;28;19998;-63
2023/06/19 08:53:19;;;;;;;;;;;;;;;23.65;47.50;97864.00;5104221;28;19970;-63
2023/06/19 08:55:46;;;;;;;;;;;;;;;23.72;47.15;97862.03;5113556;28;19963;-62
2023/06/19 08:58:20;;;;;;;;;;;;;;;23.75;46.90;97868.75;5111402;28;19968;-62
2023/06/19 09:00:49;;;;;;;;;;;;;;;23.76;47.26;97875.91;5110791;28;19928;-63
2023/06/19 09:03:20;;;;;;;;;;;;;;;23.74;47.66;97867.16;5106365;28;20304;-63
2023/06/19 09:05:50;;;;;;;;;;;;;;;23.82;48.86;97865.97;5109173;28;20010;-63
2023/06/19 09:08:20;;;;;;;;;;;;;;;23.77;47.72;97852.53;5107415;28;20485;-63
2023/06/19 09:10:57;;;;;;;;;;;;;;;23.81;47.83;97858.84;5098104;28;19924;-63
2023/06/19 09:13:25;;;;;;;;;;;;;;;23.84;47.68;97858.03;5102395;28;19969;-63
2023/06/19 09:15:58;;;;;;;;;;;;;;;23.88;47.79;97852.50;5097138;28;19954;-62
2023/06/19 09:18:27;;;;;;;;;;;;;;;23.95;46.81;97844.13;5096505;28;19923;-63
2023/06/19 09:20:57;;;;;;;;;;;;;;;24.08;48.03;97847.28;5096422;28;19930;-63
2023/06/19 09:23:24;;;;;;;;;;;;;;;24.27;46.35;97849.56;5102917;28;19931;-62
2023/06/19 09:25:58;;;;;;;;;;;;;;;24.37;46.60;97845.97;5094509;27;19977;-63
2023/06/19 09:28:28;;;;;;;;;;;;;;;24.43;45.40;97847.13;5138846;27;19936;-64
2023/06/19 09:30:57;;;;;;;;;;;;;;;24.53;45.82;97846.28;5104407;28;19924;-65
2023/06/19 09:33:25;;;;;;;;;;;;;;;24.62;46.45;97848.63;5105668;28;19947;-63
2023/06/19 09:35:54;;;;;;;;;;;;;;;24.62;46.30;97848.63;5098391;28;19924;-65
2023/06/19 09:38:25;;;;;;;;;;;;;;;24.69;46.13;97847.78;5103727;28;19928;-63
2023/06/19 09:40:53;;;;;;;;;;;;;;;24.89;46.04;97836.94;5103574;28;19924;-62
2023/06/19 09:43:24;;;;;;;;;;;;;;;24.82;46.04;97841.34;5110727;28;19924;-63
2023/06/19 09:45:54;;;;;;;;;;;;;;;24.78;46.20;97835.00;5108215;28;20334;-63
2023/06/19 09:48:23;;;;;;;;;;;;;;;24.77;45.79;97833.44;5112149;28;19958;-63
2023/06/19 09:50:53;;;;;;;;;;;;;;;24.78;46.63;97837.00;5109572;28;19923;-62
2023/06/19 09:53:21;;;;;;;;;;;;;;;24.81;46.40;97839.75;5118235;27;19931;-62
2023/06/19 09:55:51;;;;;;;;;;;;;;;24.80;46.52;97837.38;5111480;28;19928;-63
2023/06/19 09:58:19;;;;;;;;;;;;;;;24.86;45.64;97830.19;5111620;28;19935;-63
2023/06/19 10:00:49;;;;;;;;;;;;;;;24.87;43.60;97830.97;5111648;27;20026;-64
2023/06/19 10:03:17;;;;;;;;;;;;;;;24.94;45.17;97826.16;5105467;28;19932;-64
2023/06/19 10:05:46;;;;;;;;;;;;;;;25.01;44.75;97822.53;5111822;28;19930;-64
2023/06/19 10:08:14;;;;;;;;;;;;;;;25.08;43.99;97834.41;5109095;28;20362;-64
2023/06/19 10:10:47;;;;;;;;;;;;;;;25.10;45.51;97833.22;5102934;28;19924;-64
2023/06/19 10:13:16;;;;;;;;;;;;;;;25.14;44.59;97833.97;5099942;28;19924;-64
2023/06/19 10:15:44;;;;;;;;;;;;;;;25.18;43.70;97835.53;5096063;28;20312;-64
2023/06/19 10:18:16;;;;;;;;;;;;;;;25.45;44.84;97834.88;5098603;28;19924;-64
2023/06/19 10:20:44;;;;;;;;;;;;;;;25.46;44.80;97833.69;5104437;28;19928;-63
2023/06/19 10:23:16;;;;;;;;;;;;;;;25.45;43.94;97835.66;5096763;28;20292;-62
2023/06/19 10:25:45;;;;;;;;;;;;;;;25.43;44.59;97840.88;5097084;28;19924;-64
2023/06/19 10:28:21;;;;;;;;;;;;;;;25.49;44.90;97838.44;5108009;28;20380;-64
2023/06/19 10:30:55;;;;;;;;;;;;;;;25.51;44.41;97836.00;5099856;28;19981;-64
2023/06/19 10:33:25;;;;;;;;;;;;;;;25.47;44.18;97835.28;5099156;28;20381;-64
2023/06/19 10:35:52;;;;;;;;;;;;;;;25.47;43.88;97819.38;5100008;28;19939;-64
2023/06/19 10:38:21;;;;;;;;;;;;;;;25.49;44.88;97830.09;5105291;28;19971;-64
2023/06/19 10:40:49;;;;;;;;;;;;;;;25.46;44.80;97823.38;5108556;28;19927;-64
2023/06/19 10:43:22;;;;;;;;;;;;;;;25.40;42.80;97818.66;5098529;28;20419;-64
2023/06/19 10:45:50;;;;;;;;;;;;;;;25.42;44.02;97824.59;5105236;28;19931;-64
2023/06/19 10:48:19;;;;;;;;;;;;;;;25.59;44.79;97816.06;5104774;28;19932;-64
2023/06/19 10:50:47;;;;;;;;;;;;;;;25.49;43.61;97813.41;5098107;28;19970;-62
2023/06/19 10:53:23;;;;;;;;;;;;;;;25.53;44.46;97806.59;5104677;28;19927;-62
2023/06/19 10:55:55;;;;;;;;;;;;;;;25.48;43.61;97803.47;5109827;28;19990;-62
2023/06/19 10:58:25;;;;;;;;;;;;;;;25.54;44.50;97796.25;5095532;28;19924;-64
2023/06/19 11:00:52;;;;;;;;;;;;;;;25.48;42.93;97793.13;5102881;28;19923;-64
2023/06/19 11:03:20;;;;;;;;;;;;;;;25.75;44.83;97796.06;5104738;28;19924;-64
2023/06/19 11:05:49;;;;;;;;;;;;;;;25.79;42.63;97796.03;5142541;27;20306;-62
2023/06/19 11:08:20;;;;;;;;;;;;;;;25.70;44.13;97799.25;5107173;28;20360;-64
2023/06/19 11:10:47;;;;;;;;;;;;;;;25.77;44.42;97799.19;5111190;28;19959;-64
2023/06/19 11:13:16;;;;;;;;;;;;;;;25.69;42.53;97794.91;5109119;28;19927;-65
2023/06/19 11:15:49;;;;;;;;;;;;;;;25.64;44.17;97791.78;5090847;28;19924;-62
2023/06/19 11:18:20;;;;;;;;;;;;;;;25.60;44.20;97792.59;5103617;28;19927;-63
2023/06/19 11:20:49;;;;;;;;;;;;;;;25.60;43.06;97789.03;5099130;28;19928;-62
2023/06/19 11:23:18;;;;;;;;;;;;;;;25.76;44.76;97796.84;5110180;28;19923;-62
2023/06/19 11:25:46;;;;;;;;;;;;;;;25.85;42.70;97788.78;5114518;28;20022;-64
2023/06/19 11:28:14;;;;;;;;;;;;;;;25.86;44.09;97795.94;5106184;28;19985;-64
2023/06/19 11:30:43;;;;;;;;;;;;;;;25.80;42.78;97792.81;5103583;28;20305;-64
2023/06/19 11:33:22;;;;;;;;;;;;;;;25.82;44.58;97790.41;5109153;28;19947;-65
2023/06/19 11:35:50;;;;;;;;;;;;;;;25.82;42.40;97786.81;5106343;28;20315;-64
2023/06/19 11:38:19;;;;;;;;;;;;;;;25.93;42.83;97786.69;5110675;28;19928;-63
2023/06/19 11:40:48;;;;;;;;;;;;;;;26.09;43.72;97786.88;5108800;28;19931;-63
2023/06/19 11:43:24;;;;;;;;;;;;;;;26.07;43.67;97781.75;5134626;27;19934;-63
2023/06/19 11:45:55;;;;;;;;;;;;;;;26.03;43.17;97778.22;5111055;28;19928;-63
2023/06/19 11:48:26;;;;;;;;;;;;;;;26.09;42.72;97781.31;5111680;28;19967;-63
2023/06/19 11:50:54;;;;;;;;;;;;;;;25.97;40.67;97767.97;5112027;28;19924;-63
2023/06/19 11:53:22;;;;;;;;;;;;;;;25.99;43.04;97779.47;5110871;28;20403;-63
2023/06/19 11:55:50;;;;;;;;;;;;;;;26.19;43.61;97769.25;5110595;28;19924;-63
2023/06/19 11:58:20;;;;;;;;;;;;;;;26.39;43.18;97769.38;5114320;28;19962;-63
2023/06/19 12:00:48;;;;;;;;;;;;;;;26.13;41.06;97768.94;5106156;28;19939;-63
2023/06/19 12:03:16;;;;;;;;;;;;;;;26.04;41.50;97757.50;5107241;28;20368;-63
2023/06/19 12:05:45;;;;;;;;;;;;;;;26.11;41.46;97757.44;5110517;28;19931;-63
2023/06/19 12:08:13;;;;;;;;;;;;;;;26.16;41.20;97752.63;5111139;27;19923;-63
2023/06/19 12:10:41;;;;;;;;;;;;;;;26.02;40.33;97751.59;5111125;28;19928;-63
2023/06/19 12:13:08;;;;;;;;;;;;;;;25.97;41.51;97754.84;5108965;28;19928;-63
2023/06/19 12:15:38;;;;;;;;;;;;;;;26.03;42.71;97755.16;5113348;28;20277;-63
2023/06/19 12:18:07;;;;;;;;;;;;;;;26.01;41.13;97747.22;5113010;28;19988;-63
2023/06/19 12:20:35;;;;;;;;;;;;;;;26.12;41.15;97756.22;5096004;28;19924;-63
2023/06/19 12:23:04;;;;;;;;;;;;;;;26.17;41.52;97754.19;5108900;28;19924;-63
2023/06/19 12:25:32;;;;;;;;;;;;;;;26.10;41.84;97750.28;5110751;28;20324;-63
2023/06/19 12:28:00;;;;;;;;;;;;;;;26.00;41.02;97750.44;5105691;28;19924;-63
2023/06/19 12:30:28;;;;;;;;;;;;;;;25.99;42.15;97746.84;5111176;28;19973;-63
2023/06/19 12:32:57;;;;;;;;;;;;;;;25.91;40.67;97744.59;5101447;28;19927;-63
2023/06/19 12:35:26;;;;;;;;;;;;;;;26.05;42.22;97745.19;5113678;28;20427;-63
2023/06/19 12:37:54;;;;;;;;;;;;;;;26.12;41.95;97742.31;5109100;28;20295;-63
2023/06/19 12:40:24;;;;;;;;;;;;;;;26.02;40.86;97736.88;5110517;28;19924;-63
2023/06/19 12:42:53;;;;;;;;;;;;;;;26.04;42.14;97740.81;5108409;28;19946;-63
2023/06/19 12:45:20;;;;;;;;;;;;;;;26.16;42.61;97744.25;5114111;27;19924;-64
2023/06/19 12:47:49;;;;;;;;;;;;;;;26.21;42.29;97741.00;5109913;28;19932;-63
2023/06/19 12:50:17;;;;;;;;;;;;;;;26.22;42.55;97739.78;5113330;28;19930;-64
2023/06/19 12:52:47;;;;;;;;;;;;;;;26.32;41.60;97734.06;5104351;28;19923;-63
2023/06/19 12:55:18;;;;;;;;;;;;;;;26.41;41.50;97741.88;5113075;28;19969;-63